Rossie, New York
Current Conditions -  °F | °C
As of 9:58 AM on Friday 24 Oct 2014 (Local Time) from KGTB Reporting Station
Clear Clear  
Wind Chill: 45°   Ceiling: Unl
Heat Index: 47°   Visibility: 10mi
Dew Point: 43°   Wind: 5mph
Humidity: 85%   Direction: NA
Pressure: 29.92"   Gusts: NA
Location:  44.435°N, 75.6656°W
Report Text: KGTB 241358Z AUTO VRB04KT 10SM CLR 09/06 A2992 RMK AO2 SLP136 T00850061
Loading
Personal Weather Stations






























Interactive Weather Map
Tropical Storm Tracking
New forecast layout! Learn more

10-Day Weather Forecast

Advertisements
Track Severe Weather on mobile